sensor_id;sensor_type;location;lat;lon;timestamp;P1;durP1;ratioP1;P2;durP2;ratioP2
51854;SDS011;37895;53.240;6.572;2023-05-10T00:00:13;14.30;;;13.00;;
51854;SDS011;37895;53.240;6.572;2023-05-10T00:02:39;13.82;;;12.63;;
51854;SDS011;37895;53.240;6.572;2023-05-10T00:05:05;14.73;;;13.32;;
51854;SDS011;37895;53.240;6.572;2023-05-10T00:09:57;14.73;;;13.43;;
51854;SDS011;37895;53.240;6.572;2023-05-10T00:12:22;14.10;;;12.85;;
51854;SDS011;37895;53.240;6.572;2023-05-10T00:14:48;15.05;;;13.65;;
51854;SDS011;37895;53.240;6.572;2023-05-10T00:17:14;14.38;;;13.07;;
51854;SDS011;37895;53.240;6.572;2023-05-10T00:19:39;15.10;;;13.57;;
51854;SDS011;37895;53.240;6.572;2023-05-10T00:22:05;14.02;;;12.63;;
51854;SDS011;37895;53.240;6.572;2023-05-10T00:24:31;13.50;;;12.20;;
51854;SDS011;37895;53.240;6.572;2023-05-10T00:26:56;12.57;;;11.40;;
51854;SDS011;37895;53.240;6.572;2023-05-10T00:29:22;12.85;;;11.65;;
51854;SDS011;37895;53.240;6.572;2023-05-10T00:31:47;13.75;;;12.45;;
51854;SDS011;37895;53.240;6.572;2023-05-10T00:34:13;13.30;;;12.00;;
51854;SDS011;37895;53.240;6.572;2023-05-10T00:36:39;13.05;;;11.82;;
51854;SDS011;37895;53.240;6.572;2023-05-10T00:39:05;11.82;;;10.63;;
51854;SDS011;37895;53.240;6.572;2023-05-10T00:41:31;12.18;;;11.00;;
51854;SDS011;37895;53.240;6.572;2023-05-10T00:43:59;11.02;;;10.00;;
51854;SDS011;37895;53.240;6.572;2023-05-10T00:46:25;11.52;;;10.43;;
51854;SDS011;37895;53.240;6.572;2023-05-10T00:48:52;11.23;;;10.13;;
51854;SDS011;37895;53.240;6.572;2023-05-10T00:51:17;11.60;;;10.50;;
51854;SDS011;37895;53.240;6.572;2023-05-10T00:53:44;11.77;;;10.68;;
51854;SDS011;37895;53.240;6.572;2023-05-10T00:56:11;11.18;;;10.02;;
51854;SDS011;37895;53.240;6.572;2023-05-10T01:01:03;11.38;;;10.38;;
51854;SDS011;37895;53.240;6.572;2023-05-10T01:03:30;11.70;;;10.60;;
51854;SDS011;37895;53.240;6.572;2023-05-10T01:05:57;11.52;;;10.30;;
51854;SDS011;37895;53.240;6.572;2023-05-10T01:08:23;9.90;;;9.00;;
51854;SDS011;37895;53.240;6.572;2023-05-10T01:10:49;11.65;;;10.55;;
51854;SDS011;37895;53.240;6.572;2023-05-10T01:13:23;9.52;;;8.73;;
51854;SDS011;37895;53.240;6.572;2023-05-10T01:15:52;9.82;;;8.93;;
51854;SDS011;37895;53.240;6.572;2023-05-10T01:18:18;9.77;;;8.88;;
51854;SDS011;37895;53.240;6.572;2023-05-10T01:20:46;9.88;;;9.07;;
51854;SDS011;37895;53.240;6.572;2023-05-10T01:34:08;12.40;;;11.10;;
51854;SDS011;37895;53.240;6.572;2023-05-10T01:36:58;11.23;;;10.15;;
51854;SDS011;37895;53.240;6.572;2023-05-10T01:39:36;13.57;;;12.25;;
51854;SDS011;37895;53.240;6.572;2023-05-10T01:42:20;12.23;;;11.02;;
51854;SDS011;37895;53.240;6.572;2023-05-10T01:48:10;12.82;;;11.52;;
51854;SDS011;37895;53.240;6.572;2023-05-10T01:50:38;14.15;;;12.85;;
51854;SDS011;37895;53.240;6.572;2023-05-10T01:53:08;13.10;;;11.82;;
51854;SDS011;37895;53.240;6.572;2023-05-10T01:55:38;13.70;;;12.35;;
51854;SDS011;37895;53.240;6.572;2023-05-10T01:58:13;13.13;;;11.82;;
51854;SDS011;37895;53.240;6.572;2023-05-10T02:00:43;14.55;;;13.15;;
51854;SDS011;37895;53.240;6.572;2023-05-10T02:03:10;13.18;;;11.85;;
51854;SDS011;37895;53.240;6.572;2023-05-10T02:05:37;12.57;;;11.38;;
51854;SDS011;37895;53.240;6.572;2023-05-10T02:08:05;12.60;;;11.23;;
51854;SDS011;37895;53.240;6.572;2023-05-10T02:10:35;11.60;;;10.50;;
51854;SDS011;37895;53.240;6.572;2023-05-10T02:13:01;12.30;;;11.10;;
51854;SDS011;37895;53.240;6.572;2023-05-10T02:15:28;11.57;;;10.57;;
51854;SDS011;37895;53.240;6.572;2023-05-10T02:17:55;12.18;;;10.95;;
51854;SDS011;37895;53.240;6.572;2023-05-10T02:20:21;11.77;;;10.65;;
51854;SDS011;37895;53.240;6.572;2023-05-10T02:22:50;13.05;;;11.85;;
51854;SDS011;37895;53.240;6.572;2023-05-10T02:25:19;14.02;;;12.60;;
51854;SDS011;37895;53.240;6.572;2023-05-10T02:27:46;14.00;;;12.65;;
51854;SDS011;37895;53.240;6.572;2023-05-10T02:30:13;11.20;;;10.20;;
51854;SDS011;37895;53.240;6.572;2023-05-10T02:32:39;12.57;;;11.48;;
51854;SDS011;37895;53.240;6.572;2023-05-10T02:35:07;13.25;;;12.05;;
51854;SDS011;37895;53.240;6.572;2023-05-10T02:37:35;11.60;;;10.60;;
51854;SDS011;37895;53.240;6.572;2023-05-10T02:40:02;11.98;;;10.88;;
51854;SDS011;37895;53.240;6.572;2023-05-10T02:42:31;13.10;;;11.90;;
51854;SDS011;37895;53.240;6.572;2023-05-10T02:45:00;13.88;;;11.50;;
51854;SDS011;37895;53.240;6.572;2023-05-10T02:47:28;12.25;;;11.15;;
51854;SDS011;37895;53.240;6.572;2023-05-10T02:49:54;14.50;;;13.00;;
51854;SDS011;37895;53.240;6.572;2023-05-10T02:52:21;13.50;;;12.13;;
51854;SDS011;37895;53.240;6.572;2023-05-10T02:54:52;13.20;;;11.90;;
51854;SDS011;37895;53.240;6.572;2023-05-10T02:57:25;18.08;;;14.50;;
51854;SDS011;37895;53.240;6.572;2023-05-10T02:59:53;15.77;;;13.82;;
51854;SDS011;37895;53.240;6.572;2023-05-10T03:02:20;15.75;;;14.15;;
51854;SDS011;37895;53.240;6.572;2023-05-10T03:04:46;15.75;;;14.18;;
51854;SDS011;37895;53.240;6.572;2023-05-10T03:07:12;17.42;;;14.88;;
51854;SDS011;37895;53.240;6.572;2023-05-10T03:09:38;18.60;;;16.17;;
51854;SDS011;37895;53.240;6.572;2023-05-10T03:20:29;18.50;;;16.30;;
51854;SDS011;37895;53.240;6.572;2023-05-10T03:25:48;19.67;;;17.58;;
51854;SDS011;37895;53.240;6.572;2023-05-10T03:28:15;21.08;;;17.83;;
51854;SDS011;37895;53.240;6.572;2023-05-10T03:30:42;21.40;;;17.85;;
51854;SDS011;37895;53.240;6.572;2023-05-10T03:33:09;20.10;;;18.08;;
51854;SDS011;37895;53.240;6.572;2023-05-10T03:35:34;19.00;;;17.00;;
51854;SDS011;37895;53.240;6.572;2023-05-10T03:38:00;27.63;;;20.92;;
51854;SDS011;37895;53.240;6.572;2023-05-10T03:40:26;23.33;;;18.15;;
51854;SDS011;37895;53.240;6.572;2023-05-10T03:42:57;19.83;;;17.73;;
51854;SDS011;37895;53.240;6.572;2023-05-10T03:45:23;20.73;;;18.63;;
51854;SDS011;37895;53.240;6.572;2023-05-10T03:47:48;22.00;;;18.95;;
51854;SDS011;37895;53.240;6.572;2023-05-10T03:50:14;19.70;;;17.50;;
51854;SDS011;37895;53.240;6.572;2023-05-10T03:52:40;20.00;;;17.90;;
51854;SDS011;37895;53.240;6.572;2023-05-10T03:55:06;22.73;;;20.10;;
51854;SDS011;37895;53.240;6.572;2023-05-10T03:57:32;21.75;;;18.13;;
51854;SDS011;37895;53.240;6.572;2023-05-10T03:59:58;18.70;;;16.70;;
51854;SDS011;37895;53.240;6.572;2023-05-10T04:02:24;23.20;;;19.50;;
51854;SDS011;37895;53.240;6.572;2023-05-10T04:04:50;25.80;;;20.33;;
51854;SDS011;37895;53.240;6.572;2023-05-10T04:07:16;17.95;;;15.90;;
51854;SDS011;37895;53.240;6.572;2023-05-10T04:09:41;17.60;;;15.70;;
51854;SDS011;37895;53.240;6.572;2023-05-10T04:12:07;16.40;;;14.50;;
51854;SDS011;37895;53.240;6.572;2023-05-10T04:14:33;18.35;;;15.18;;
51854;SDS011;37895;53.240;6.572;2023-05-10T04:16:59;13.82;;;12.38;;
51854;SDS011;37895;53.240;6.572;2023-05-10T04:19:28;14.90;;;13.27;;
51854;SDS011;37895;53.240;6.572;2023-05-10T04:21:57;13.02;;;11.73;;
51854;SDS011;37895;53.240;6.572;2023-05-10T04:24:23;13.45;;;10.88;;
51854;SDS011;37895;53.240;6.572;2023-05-10T04:26:49;11.88;;;10.68;;
51854;SDS011;37895;53.240;6.572;2023-05-10T04:29:15;11.43;;;10.27;;
51854;SDS011;37895;53.240;6.572;2023-05-10T04:31:40;10.73;;;9.75;;
51854;SDS011;37895;53.240;6.572;2023-05-10T04:34:06;10.73;;;9.73;;
51854;SDS011;37895;53.240;6.572;2023-05-10T04:36:31;11.27;;;10.10;;
51854;SDS011;37895;53.240;6.572;2023-05-10T04:38:58;11.95;;;10.02;;
51854;SDS011;37895;53.240;6.572;2023-05-10T04:41:25;10.10;;;9.20;;
51854;SDS011;37895;53.240;6.572;2023-05-10T04:43:51;12.85;;;11.07;;
51854;SDS011;37895;53.240;6.572;2023-05-10T04:46:17;13.07;;;11.90;;
51854;SDS011;37895;53.240;6.572;2023-05-10T04:48:42;12.20;;;11.10;;
51854;SDS011;37895;53.240;6.572;2023-05-10T04:51:08;11.50;;;10.50;;
51854;SDS011;37895;53.240;6.572;2023-05-10T04:53:34;10.32;;;9.32;;
51854;SDS011;37895;53.240;6.572;2023-05-10T04:56:00;11.18;;;10.07;;
51854;SDS011;37895;53.240;6.572;2023-05-10T04:58:25;14.82;;;11.40;;
51854;SDS011;37895;53.240;6.572;2023-05-10T05:00:51;11.65;;;10.52;;
51854;SDS011;37895;53.240;6.572;2023-05-10T05:03:17;11.32;;;10.23;;
51854;SDS011;37895;53.240;6.572;2023-05-10T05:05:43;11.60;;;10.60;;
51854;SDS011;37895;53.240;6.572;2023-05-10T05:08:09;11.48;;;10.45;;
51854;SDS011;37895;53.240;6.572;2023-05-10T05:10:35;11.95;;;10.20;;
51854;SDS011;37895;53.240;6.572;2023-05-10T05:13:00;11.27;;;10.27;;
51854;SDS011;37895;53.240;6.572;2023-05-10T05:15:26;10.68;;;9.55;;
51854;SDS011;37895;53.240;6.572;2023-05-10T05:17:52;10.02;;;9.15;;
51854;SDS011;37895;53.240;6.572;2023-05-10T05:20:18;10.82;;;9.73;;
51854;SDS011;37895;53.240;6.572;2023-05-10T05:22:44;9.40;;;8.43;;
51854;SDS011;37895;53.240;6.572;2023-05-10T05:25:09;9.75;;;8.95;;
51854;SDS011;37895;53.240;6.572;2023-05-10T05:27:36;10.25;;;9.15;;
51854;SDS011;37895;53.240;6.572;2023-05-10T05:30:02;9.40;;;8.57;;
51854;SDS011;37895;53.240;6.572;2023-05-10T05:32:29;10.05;;;9.05;;
51854;SDS011;37895;53.240;6.572;2023-05-10T05:34:55;10.23;;;9.23;;
51854;SDS011;37895;53.240;6.572;2023-05-10T05:37:20;10.32;;;9.02;;
51854;SDS011;37895;53.240;6.572;2023-05-10T05:39:47;9.20;;;8.35;;
51854;SDS011;37895;53.240;6.572;2023-05-10T05:42:13;10.50;;;8.88;;
51854;SDS011;37895;53.240;6.572;2023-05-10T05:44:41;8.93;;;8.13;;
51854;SDS011;37895;53.240;6.572;2023-05-10T05:47:07;9.82;;;8.93;;
51854;SDS011;37895;53.240;6.572;2023-05-10T05:49:32;8.77;;;7.97;;
51854;SDS011;37895;53.240;6.572;2023-05-10T05:51:59;8.80;;;8.00;;
51854;SDS011;37895;53.240;6.572;2023-05-10T05:54:28;8.32;;;7.60;;
51854;SDS011;37895;53.240;6.572;2023-05-10T05:56:57;8.13;;;7.32;;
51854;SDS011;37895;53.240;6.572;2023-05-10T05:59:24;7.03;;;6.43;;
51854;SDS011;37895;53.240;6.572;2023-05-10T06:01:49;7.00;;;6.40;;
51854;SDS011;37895;53.240;6.572;2023-05-10T06:04:16;7.13;;;6.43;;
51854;SDS011;37895;53.240;6.572;2023-05-10T06:06:44;5.80;;;5.28;;
51854;SDS011;37895;53.240;6.572;2023-05-10T06:09:10;5.25;;;4.35;;
51854;SDS011;37895;53.240;6.572;2023-05-10T06:11:36;4.10;;;3.70;;
51854;SDS011;37895;53.240;6.572;2023-05-10T06:14:03;3.75;;;3.45;;
51854;SDS011;37895;53.240;6.572;2023-05-10T06:16:30;4.25;;;3.85;;
51854;SDS011;37895;53.240;6.572;2023-05-10T06:21:21;3.30;;;3.00;;
51854;SDS011;37895;53.240;6.572;2023-05-10T06:23:47;2.90;;;2.70;;
51854;SDS011;37895;53.240;6.572;2023-05-10T06:26:13;3.28;;;2.97;;
51854;SDS011;37895;53.240;6.572;2023-05-10T06:28:39;5.28;;;2.92;;
51854;SDS011;37895;53.240;6.572;2023-05-10T06:31:05;3.00;;;2.80;;
51854;SDS011;37895;53.240;6.572;2023-05-10T06:33:31;3.88;;;3.47;;
51854;SDS011;37895;53.240;6.572;2023-05-10T06:35:57;4.38;;;3.97;;
51854;SDS011;37895;53.240;6.572;2023-05-10T06:38:23;5.55;;;5.05;;
51854;SDS011;37895;53.240;6.572;2023-05-10T06:40:49;9.55;;;7.57;;
51854;SDS011;37895;53.240;6.572;2023-05-10T06:43:14;12.82;;;11.52;;
51854;SDS011;37895;53.240;6.572;2023-05-10T06:45:40;16.10;;;14.40;;
51854;SDS011;37895;53.240;6.572;2023-05-10T06:48:06;15.48;;;13.02;;
51854;SDS011;37895;53.240;6.572;2023-05-10T06:50:32;15.52;;;13.93;;
51854;SDS011;37895;53.240;6.572;2023-05-10T06:52:58;16.33;;;14.82;;
51854;SDS011;37895;53.240;6.572;2023-05-10T06:55:24;17.83;;;16.13;;
51854;SDS011;37895;53.240;6.572;2023-05-10T06:57:50;20.35;;;18.23;;
51854;SDS011;37895;53.240;6.572;2023-05-10T07:00:18;20.55;;;18.23;;
51854;SDS011;37895;53.240;6.572;2023-05-10T07:05:09;20.17;;;17.98;;
51854;SDS011;37895;53.240;6.572;2023-05-10T07:07:35;18.65;;;16.73;;
51854;SDS011;37895;53.240;6.572;2023-05-10T07:10:01;20.50;;;18.08;;
51854;SDS011;37895;53.240;6.572;2023-05-10T07:12:27;19.35;;;17.08;;
51854;SDS011;37895;53.240;6.572;2023-05-10T07:14:53;13.27;;;11.88;;
51854;SDS011;37895;53.240;6.572;2023-05-10T07:17:19;13.13;;;11.85;;
51854;SDS011;37895;53.240;6.572;2023-05-10T07:19:44;13.05;;;10.98;;
51854;SDS011;37895;53.240;6.572;2023-05-10T07:22:10;11.82;;;10.73;;
51854;SDS011;37895;53.240;6.572;2023-05-10T07:24:36;12.77;;;11.43;;
51854;SDS011;37895;53.240;6.572;2023-05-10T07:27:02;11.43;;;10.32;;
51854;SDS011;37895;53.240;6.572;2023-05-10T07:29:27;10.10;;;9.10;;
51854;SDS011;37895;53.240;6.572;2023-05-10T07:31:53;10.23;;;9.15;;
51854;SDS011;37895;53.240;6.572;2023-05-10T07:34:19;9.40;;;8.50;;
51854;SDS011;37895;53.240;6.572;2023-05-10T07:36:45;7.18;;;6.47;;
51854;SDS011;37895;53.240;6.572;2023-05-10T07:39:11;7.05;;;6.40;;
51854;SDS011;37895;53.240;6.572;2023-05-10T07:41:37;5.60;;;5.10;;
51854;SDS011;37895;53.240;6.572;2023-05-10T07:44:03;5.43;;;4.60;;
51854;SDS011;37895;53.240;6.572;2023-05-10T07:46:30;5.38;;;4.88;;
51854;SDS011;37895;53.240;6.572;2023-05-10T07:48:55;5.90;;;5.20;;
51854;SDS011;37895;53.240;6.572;2023-05-10T07:51:21;4.60;;;4.20;;
51854;SDS011;37895;53.240;6.572;2023-05-10T07:53:47;6.00;;;4.00;;
51854;SDS011;37895;53.240;6.572;2023-05-10T07:56:19;4.60;;;4.20;;
51854;SDS011;37895;53.240;6.572;2023-05-10T07:58:51;5.15;;;4.65;;
51854;SDS011;37895;53.240;6.572;2023-05-10T08:01:17;5.97;;;4.85;;
51854;SDS011;37895;53.240;6.572;2023-05-10T08:03:43;5.40;;;4.90;;
51854;SDS011;37895;53.240;6.572;2023-05-10T08:06:08;5.63;;;5.00;;
51854;SDS011;37895;53.240;6.572;2023-05-10T08:08:34;6.38;;;5.88;;
51854;SDS011;37895;53.240;6.572;2023-05-10T08:14:21;6.22;;;5.63;;
51854;SDS011;37895;53.240;6.572;2023-05-10T08:16:47;6.97;;;6.30;;
51854;SDS011;37895;53.240;6.572;2023-05-10T08:19:13;7.22;;;6.53;;
51854;SDS011;37895;53.240;6.572;2023-05-10T08:21:39;6.78;;;6.18;;
51854;SDS011;37895;53.240;6.572;2023-05-10T08:24:07;7.00;;;6.45;;
51854;SDS011;37895;53.240;6.572;2023-05-10T08:26:33;5.78;;;5.15;;
51854;SDS011;37895;53.240;6.572;2023-05-10T08:28:58;6.22;;;5.63;;
51854;SDS011;37895;53.240;6.572;2023-05-10T08:31:24;5.43;;;5.03;;
51854;SDS011;37895;53.240;6.572;2023-05-10T08:33:50;5.65;;;5.15;;
51854;SDS011;37895;53.240;6.572;2023-05-10T08:36:17;6.88;;;6.28;;
51854;SDS011;37895;53.240;6.572;2023-05-10T08:38:46;7.30;;;6.65;;
51854;SDS011;37895;53.240;6.572;2023-05-10T08:41:15;7.95;;;7.20;;
51854;SDS011;37895;53.240;6.572;2023-05-10T08:43:41;9.07;;;7.57;;
51854;SDS011;37895;53.240;6.572;2023-05-10T08:46:11;8.60;;;7.78;;
51854;SDS011;37895;53.240;6.572;2023-05-10T08:48:46;8.32;;;7.55;;
51854;SDS011;37895;53.240;6.572;2023-05-10T08:51:17;7.50;;;6.72;;
51854;SDS011;37895;53.240;6.572;2023-05-10T08:53:46;6.78;;;6.18;;
51854;SDS011;37895;53.240;6.572;2023-05-10T08:56:13;6.60;;;5.68;;
51854;SDS011;37895;53.240;6.572;2023-05-10T08:58:40;6.93;;;6.22;;
51854;SDS011;37895;53.240;6.572;2023-05-10T09:01:06;7.72;;;6.93;;
51854;SDS011;37895;53.240;6.572;2023-05-10T09:03:34;8.93;;;6.72;;
51854;SDS011;37895;53.240;6.572;2023-05-10T09:06:03;7.60;;;6.55;;
51854;SDS011;37895;53.240;6.572;2023-05-10T09:08:30;6.13;;;5.53;;
51854;SDS011;37895;53.240;6.572;2023-05-10T09:13:22;6.93;;;6.22;;
51854;SDS011;37895;53.240;6.572;2023-05-10T09:15:48;7.63;;;5.78;;
51854;SDS011;37895;53.240;6.572;2023-05-10T09:18:15;7.53;;;6.32;;
51854;SDS011;37895;53.240;6.572;2023-05-10T09:20:40;8.68;;;6.35;;
51854;SDS011;37895;53.240;6.572;2023-05-10T09:23:06;11.63;;;5.90;;
51854;SDS011;37895;53.240;6.572;2023-05-10T09:25:32;8.55;;;6.95;;
51854;SDS011;37895;53.240;6.572;2023-05-10T09:28:02;7.97;;;7.18;;
51854;SDS011;37895;53.240;6.572;2023-05-10T09:30:31;9.32;;;8.32;;
51854;SDS011;37895;53.240;6.572;2023-05-10T09:32:57;7.65;;;6.88;;
51854;SDS011;37895;53.240;6.572;2023-05-10T09:35:27;7.22;;;6.50;;
51854;SDS011;37895;53.240;6.572;2023-05-10T09:37:54;6.95;;;6.25;;
51854;SDS011;37895;53.240;6.572;2023-05-10T09:40:22;6.78;;;6.05;;
51854;SDS011;37895;53.240;6.572;2023-05-10T09:42:56;6.85;;;6.25;;
51854;SDS011;37895;53.240;6.572;2023-05-10T09:45:27;7.10;;;6.40;;
51854;SDS011;37895;53.240;6.572;2023-05-10T09:47:55;6.38;;;5.78;;
51854;SDS011;37895;53.240;6.572;2023-05-10T09:50:22;7.43;;;6.10;;
51854;SDS011;37895;53.240;6.572;2023-05-10T09:52:49;6.65;;;6.05;;
51854;SDS011;37895;53.240;6.572;2023-05-10T09:55:25;8.73;;;6.05;;
51854;SDS011;37895;53.240;6.572;2023-05-10T09:58:01;6.93;;;5.43;;
51854;SDS011;37895;53.240;6.572;2023-05-10T10:00:27;5.63;;;5.03;;
51854;SDS011;37895;53.240;6.572;2023-05-10T10:02:59;5.40;;;4.90;;
51854;SDS011;37895;53.240;6.572;2023-05-10T10:05:31;6.20;;;5.25;;
51854;SDS011;37895;53.240;6.572;2023-05-10T10:07:59;5.30;;;4.80;;
51854;SDS011;37895;53.240;6.572;2023-05-10T10:10:26;6.13;;;4.70;;
51854;SDS011;37895;53.240;6.572;2023-05-10T10:12:53;4.32;;;3.92;;
51854;SDS011;37895;53.240;6.572;2023-05-10T10:15:22;4.65;;;4.00;;
51854;SDS011;37895;53.240;6.572;2023-05-10T10:17:48;6.18;;;4.80;;
51854;SDS011;37895;53.240;6.572;2023-05-10T10:20:15;4.97;;;4.47;;
51854;SDS011;37895;53.240;6.572;2023-05-10T10:22:41;5.43;;;4.53;;
51854;SDS011;37895;53.240;6.572;2023-05-10T10:25:09;5.07;;;4.57;;
51854;SDS011;37895;53.240;6.572;2023-05-10T10:35:31;4.65;;;3.95;;
51854;SDS011;37895;53.240;6.572;2023-05-10T10:37:57;4.40;;;4.00;;
51854;SDS011;37895;53.240;6.572;2023-05-10T10:40:30;4.28;;;3.35;;
51854;SDS011;37895;53.240;6.572;2023-05-10T10:42:58;3.80;;;3.50;;
51854;SDS011;37895;53.240;6.572;2023-05-10T10:45:43;4.00;;;3.60;;
51854;SDS011;37895;53.240;6.572;2023-05-10T10:48:32;4.35;;;3.95;;
51854;SDS011;37895;53.240;6.572;2023-05-10T10:50:58;5.22;;;4.32;;
51854;SDS011;37895;53.240;6.572;2023-05-10T10:53:26;5.28;;;4.25;;
51854;SDS011;37895;53.240;6.572;2023-05-10T10:56:02;6.32;;;5.53;;
51854;SDS011;37895;53.240;6.572;2023-05-10T10:58:33;6.25;;;5.72;;
51854;SDS011;37895;53.240;6.572;2023-05-10T11:01:09;6.97;;;5.70;;
51854;SDS011;37895;53.240;6.572;2023-05-10T11:03:35;6.10;;;5.50;;
51854;SDS011;37895;53.240;6.572;2023-05-10T11:06:01;6.90;;;6.20;;
51854;SDS011;37895;53.240;6.572;2023-05-10T11:08:31;7.75;;;6.85;;
51854;SDS011;37895;53.240;6.572;2023-05-10T11:16:10;7.55;;;6.80;;
51854;SDS011;37895;53.240;6.572;2023-05-10T11:18:37;7.50;;;6.80;;
51854;SDS011;37895;53.240;6.572;2023-05-10T11:21:03;9.63;;;8.27;;
51854;SDS011;37895;53.240;6.572;2023-05-10T11:26:07;13.10;;;8.85;;
51854;SDS011;37895;53.240;6.572;2023-05-10T11:28:45;8.95;;;8.05;;
51854;SDS011;37895;53.240;6.572;2023-05-10T11:31:13;10.05;;;8.23;;
51854;SDS011;37895;53.240;6.572;2023-05-10T11:33:50;12.73;;;9.25;;
51854;SDS011;37895;53.240;6.572;2023-05-10T11:36:18;10.63;;;8.88;;
51854;SDS011;37895;53.240;6.572;2023-05-10T11:38:45;12.60;;;9.52;;
51854;SDS011;37895;53.240;6.572;2023-05-10T11:41:12;10.25;;;9.02;;
51854;SDS011;37895;53.240;6.572;2023-05-10T11:43:39;11.82;;;9.75;;
51854;SDS011;37895;53.240;6.572;2023-05-10T11:46:09;10.38;;;9.38;;
51854;SDS011;37895;53.240;6.572;2023-05-10T11:48:36;13.07;;;9.68;;
51854;SDS011;37895;53.240;6.572;2023-05-10T11:51:08;10.02;;;9.02;;
51854;SDS011;37895;53.240;6.572;2023-05-10T11:53:35;11.90;;;9.38;;
51854;SDS011;37895;53.240;6.572;2023-05-10T11:56:07;10.02;;;8.95;;
51854;SDS011;37895;53.240;6.572;2023-05-10T11:58:34;10.88;;;9.50;;
51854;SDS011;37895;53.240;6.572;2023-05-10T12:01:01;9.27;;;8.32;;
51854;SDS011;37895;53.240;6.572;2023-05-10T12:03:27;10.90;;;9.45;;
51854;SDS011;37895;53.240;6.572;2023-05-10T12:05:54;11.00;;;9.85;;
51854;SDS011;37895;53.240;6.572;2023-05-10T12:08:21;12.52;;;10.18;;
51854;SDS011;37895;53.240;6.572;2023-05-10T12:10:48;13.30;;;10.95;;
51854;SDS011;37895;53.240;6.572;2023-05-10T12:13:14;13.43;;;10.77;;
51854;SDS011;37895;53.240;6.572;2023-05-10T12:18:07;11.88;;;9.98;;
51854;SDS011;37895;53.240;6.572;2023-05-10T12:20:39;13.13;;;10.95;;
51854;SDS011;37895;53.240;6.572;2023-05-10T12:23:07;13.52;;;11.45;;
51854;SDS011;37895;53.240;6.572;2023-05-10T12:25:34;14.23;;;12.23;;
51854;SDS011;37895;53.240;6.572;2023-05-10T12:28:08;13.65;;;11.80;;
51854;SDS011;37895;53.240;6.572;2023-05-10T12:30:35;13.70;;;11.73;;
51854;SDS011;37895;53.240;6.572;2023-05-10T12:33:02;14.38;;;12.85;;
51854;SDS011;37895;53.240;6.572;2023-05-10T12:35:48;15.45;;;13.00;;
51854;SDS011;37895;53.240;6.572;2023-05-10T12:38:25;15.55;;;13.35;;
51854;SDS011;37895;53.240;6.572;2023-05-10T12:41:03;14.98;;;12.98;;
51854;SDS011;37895;53.240;6.572;2023-05-10T12:43:30;14.82;;;12.95;;
51854;SDS011;37895;53.240;6.572;2023-05-10T12:45:56;13.07;;;11.73;;
51854;SDS011;37895;53.240;6.572;2023-05-10T12:48:22;13.32;;;11.93;;
51854;SDS011;37895;53.240;6.572;2023-05-10T12:50:49;14.70;;;13.00;;
51854;SDS011;37895;53.240;6.572;2023-05-10T12:53:15;13.05;;;11.75;;
51854;SDS011;37895;53.240;6.572;2023-05-10T12:58:07;13.85;;;11.80;;
51854;SDS011;37895;53.240;6.572;2023-05-10T13:00:32;14.48;;;12.98;;
51854;SDS011;37895;53.240;6.572;2023-05-10T13:02:58;12.70;;;11.35;;
51854;SDS011;37895;53.240;6.572;2023-05-10T13:05:24;12.05;;;10.80;;
51854;SDS011;37895;53.240;6.572;2023-05-10T13:07:50;11.93;;;10.73;;
51854;SDS011;37895;53.240;6.572;2023-05-10T13:10:15;12.18;;;10.90;;
51854;SDS011;37895;53.240;6.572;2023-05-10T13:12:41;12.05;;;9.82;;
51854;SDS011;37895;53.240;6.572;2023-05-10T13:15:07;11.05;;;9.95;;
51854;SDS011;37895;53.240;6.572;2023-05-10T13:17:33;11.10;;;9.95;;
51854;SDS011;37895;53.240;6.572;2023-05-10T13:19:58;12.10;;;10.90;;
51854;SDS011;37895;53.240;6.572;2023-05-10T13:22:24;12.68;;;10.50;;
51854;SDS011;37895;53.240;6.572;2023-05-10T13:24:50;13.57;;;11.13;;
51854;SDS011;37895;53.240;6.572;2023-05-10T13:27:15;12.60;;;11.13;;
51854;SDS011;37895;53.240;6.572;2023-05-10T13:29:41;11.50;;;10.30;;
51854;SDS011;37895;53.240;6.572;2023-05-10T13:32:07;13.50;;;10.00;;
51854;SDS011;37895;53.240;6.572;2023-05-10T13:34:33;10.73;;;9.63;;
51854;SDS011;37895;53.240;6.572;2023-05-10T13:37:00;10.90;;;9.48;;
51854;SDS011;37895;53.240;6.572;2023-05-10T13:39:26;10.57;;;9.23;;
51854;SDS011;37895;53.240;6.572;2023-05-10T13:41:52;9.75;;;8.68;;
51854;SDS011;37895;53.240;6.572;2023-05-10T13:44:17;9.77;;;7.88;;
51854;SDS011;37895;53.240;6.572;2023-05-10T13:46:45;8.95;;;8.05;;
51854;SDS011;37895;53.240;6.572;2023-05-10T13:51:36;10.88;;;8.40;;
51854;SDS011;37895;53.240;6.572;2023-05-10T13:54:02;11.35;;;8.05;;
51854;SDS011;37895;53.240;6.572;2023-05-10T13:56:28;9.98;;;8.05;;
51854;SDS011;37895;53.240;6.572;2023-05-10T13:58:54;8.43;;;7.63;;
51854;SDS011;37895;53.240;6.572;2023-05-10T14:01:21;11.27;;;9.10;;
51854;SDS011;37895;53.240;6.572;2023-05-10T14:03:47;10.23;;;9.13;;
51854;SDS011;37895;53.240;6.572;2023-05-10T14:06:13;10.45;;;9.02;;
51854;SDS011;37895;53.240;6.572;2023-05-10T14:08:38;10.90;;;9.80;;
51854;SDS011;37895;53.240;6.572;2023-05-10T14:13:30;10.55;;;9.35;;
51854;SDS011;37895;53.240;6.572;2023-05-10T14:15:56;11.00;;;9.90;;
51854;SDS011;37895;53.240;6.572;2023-05-10T14:18:22;10.30;;;9.20;;
51854;SDS011;37895;53.240;6.572;2023-05-10T14:20:48;10.98;;;9.77;;
51854;SDS011;37895;53.240;6.572;2023-05-10T14:23:14;12.15;;;8.93;;
51854;SDS011;37895;53.240;6.572;2023-05-10T14:25:40;11.07;;;9.05;;
51854;SDS011;37895;53.240;6.572;2023-05-10T14:28:05;10.88;;;9.77;;
51854;SDS011;37895;53.240;6.572;2023-05-10T14:30:31;10.35;;;9.25;;
51854;SDS011;37895;53.240;6.572;2023-05-10T14:33:01;10.77;;;9.65;;
51854;SDS011;37895;53.240;6.572;2023-05-10T14:35:27;10.70;;;9.60;;
51854;SDS011;37895;53.240;6.572;2023-05-10T14:37:55;9.82;;;8.82;;
51854;SDS011;37895;53.240;6.572;2023-05-10T14:40:21;10.65;;;9.55;;
51854;SDS011;37895;53.240;6.572;2023-05-10T14:45:52;11.50;;;10.30;;
51854;SDS011;37895;53.240;6.572;2023-05-10T14:48:18;11.00;;;9.90;;
51854;SDS011;37895;53.240;6.572;2023-05-10T14:50:43;12.70;;;11.40;;
51854;SDS011;37895;53.240;6.572;2023-05-10T14:53:10;11.73;;;10.40;;
51854;SDS011;37895;53.240;6.572;2023-05-10T14:55:36;12.55;;;11.00;;
51854;SDS011;37895;53.240;6.572;2023-05-10T14:58:03;13.90;;;10.75;;
51854;SDS011;37895;53.240;6.572;2023-05-10T15:00:29;13.48;;;11.93;;
51854;SDS011;37895;53.240;6.572;2023-05-10T15:05:20;14.68;;;11.93;;
51854;SDS011;37895;53.240;6.572;2023-05-10T15:07:46;14.82;;;13.32;;
51854;SDS011;37895;53.240;6.572;2023-05-10T15:10:16;13.60;;;12.05;;
51854;SDS011;37895;53.240;6.572;2023-05-10T15:12:42;13.95;;;11.85;;
51854;SDS011;37895;53.240;6.572;2023-05-10T15:15:08;12.20;;;10.90;;
51854;SDS011;37895;53.240;6.572;2023-05-10T15:17:34;12.63;;;11.32;;
51854;SDS011;37895;53.240;6.572;2023-05-10T15:19:59;12.55;;;11.10;;
51854;SDS011;37895;53.240;6.572;2023-05-10T15:22:27;12.95;;;11.45;;
51854;SDS011;37895;53.240;6.572;2023-05-10T15:24:53;14.82;;;11.77;;
51854;SDS011;37895;53.240;6.572;2023-05-10T15:27:19;14.07;;;12.57;;
51854;SDS011;37895;53.240;6.572;2023-05-10T15:29:45;14.07;;;12.68;;
51854;SDS011;37895;53.240;6.572;2023-05-10T15:32:11;12.73;;;10.98;;
51854;SDS011;37895;53.240;6.572;2023-05-10T15:34:37;14.80;;;13.30;;
51854;SDS011;37895;53.240;6.572;2023-05-10T15:37:02;13.35;;;11.82;;
51854;SDS011;37895;53.240;6.572;2023-05-10T15:39:28;12.23;;;11.02;;
51854;SDS011;37895;53.240;6.572;2023-05-10T15:41:54;11.90;;;10.80;;
51854;SDS011;37895;53.240;6.572;2023-05-10T15:44:19;10.90;;;9.90;;